sensor_id;sensor_type;location;lat;lon;timestamp;P1;durP1;ratioP1;P2;durP2;ratioP2
50906;SDS011;36882;27.680;85.304;2023-10-13T00:02:01;65.57;;;42.47;;
50906;SDS011;36882;27.680;85.304;2023-10-13T00:04:34;61.60;;;43.97;;
50906;SDS011;36882;27.680;85.304;2023-10-13T00:07:07;69.20;;;45.65;;
50906;SDS011;36882;27.680;85.304;2023-10-13T00:09:38;72.97;;;43.50;;
50906;SDS011;36882;27.680;85.304;2023-10-13T00:12:09;64.82;;;46.60;;
50906;SDS011;36882;27.680;85.304;2023-10-13T00:14:42;70.07;;;46.45;;
50906;SDS011;36882;27.680;85.304;2023-10-13T00:17:14;72.68;;;49.78;;
50906;SDS011;36882;27.680;85.304;2023-10-13T00:19:53;67.50;;;46.13;;
50906;SDS011;36882;27.680;85.304;2023-10-13T00:22:24;71.55;;;46.55;;
50906;SDS011;36882;27.680;85.304;2023-10-13T00:24:59;78.97;;;47.63;;
50906;SDS011;36882;27.680;85.304;2023-10-13T00:27:32;66.53;;;45.65;;
50906;SDS011;36882;27.680;85.304;2023-10-13T00:30:06;76.15;;;48.15;;
50906;SDS011;36882;27.680;85.304;2023-10-13T00:32:46;71.70;;;45.95;;
50906;SDS011;36882;27.680;85.304;2023-10-13T00:35:28;70.82;;;47.47;;
50906;SDS011;36882;27.680;85.304;2023-10-13T00:38:05;74.45;;;46.17;;
50906;SDS011;36882;27.680;85.304;2023-10-13T00:40:42;81.75;;;48.78;;
50906;SDS011;36882;27.680;85.304;2023-10-13T00:43:20;88.18;;;49.13;;
50906;SDS011;36882;27.680;85.304;2023-10-13T00:45:55;75.25;;;53.00;;
50906;SDS011;36882;27.680;85.304;2023-10-13T00:48:31;85.03;;;57.17;;
50906;SDS011;36882;27.680;85.304;2023-10-13T00:51:20;81.95;;;54.05;;
50906;SDS011;36882;27.680;85.304;2023-10-13T00:54:09;84.88;;;54.13;;
50906;SDS011;36882;27.680;85.304;2023-10-13T00:56:41;90.40;;;51.33;;
50906;SDS011;36882;27.680;85.304;2023-10-13T00:59:22;89.35;;;51.55;;
50906;SDS011;36882;27.680;85.304;2023-10-13T01:01:54;80.55;;;50.63;;
50906;SDS011;36882;27.680;85.304;2023-10-13T01:04:25;70.57;;;49.60;;
50906;SDS011;36882;27.680;85.304;2023-10-13T01:07:01;76.90;;;49.28;;
50906;SDS011;36882;27.680;85.304;2023-10-13T01:09:31;81.30;;;51.00;;
50906;SDS011;36882;27.680;85.304;2023-10-13T01:12:15;87.18;;;49.28;;
50906;SDS011;36882;27.680;85.304;2023-10-13T01:14:46;74.82;;;47.80;;
50906;SDS011;36882;27.680;85.304;2023-10-13T01:17:17;71.95;;;48.45;;
50906;SDS011;36882;27.680;85.304;2023-10-13T01:19:50;72.85;;;44.85;;
50906;SDS011;36882;27.680;85.304;2023-10-13T01:22:27;67.75;;;45.85;;
50906;SDS011;36882;27.680;85.304;2023-10-13T01:24:58;70.70;;;44.92;;
50906;SDS011;36882;27.680;85.304;2023-10-13T01:27:39;82.63;;;48.25;;
50906;SDS011;36882;27.680;85.304;2023-10-13T01:30:10;73.13;;;47.90;;
50906;SDS011;36882;27.680;85.304;2023-10-13T01:32:52;67.40;;;44.90;;
50906;SDS011;36882;27.680;85.304;2023-10-13T01:35:23;67.10;;;45.38;;
50906;SDS011;36882;27.680;85.304;2023-10-13T01:37:54;75.57;;;47.22;;
50906;SDS011;36882;27.680;85.304;2023-10-13T01:40:24;72.13;;;43.65;;
50906;SDS011;36882;27.680;85.304;2023-10-13T01:42:57;70.30;;;42.72;;
50906;SDS011;36882;27.680;85.304;2023-10-13T01:45:28;73.45;;;43.60;;
50906;SDS011;36882;27.680;85.304;2023-10-13T01:47:59;78.45;;;54.88;;
50906;SDS011;36882;27.680;85.304;2023-10-13T01:50:30;70.55;;;45.00;;
50906;SDS011;36882;27.680;85.304;2023-10-13T01:53:00;71.50;;;45.35;;
50906;SDS011;36882;27.680;85.304;2023-10-13T01:55:46;70.07;;;43.75;;
50906;SDS011;36882;27.680;85.304;2023-10-13T01:58:17;56.60;;;42.92;;
50906;SDS011;36882;27.680;85.304;2023-10-13T02:00:51;74.05;;;42.20;;
50906;SDS011;36882;27.680;85.304;2023-10-13T02:03:22;60.83;;;40.90;;
50906;SDS011;36882;27.680;85.304;2023-10-13T02:05:53;57.22;;;37.92;;
50906;SDS011;36882;27.680;85.304;2023-10-13T02:08:27;59.30;;;38.97;;
50906;SDS011;36882;27.680;85.304;2023-10-13T02:11:00;58.70;;;38.00;;
50906;SDS011;36882;27.680;85.304;2023-10-13T02:13:36;66.03;;;43.70;;
50906;SDS011;36882;27.680;85.304;2023-10-13T02:16:17;65.95;;;43.00;;
50906;SDS011;36882;27.680;85.304;2023-10-13T02:18:50;63.70;;;40.88;;
50906;SDS011;36882;27.680;85.304;2023-10-13T02:21:20;64.47;;;45.00;;
50906;SDS011;36882;27.680;85.304;2023-10-13T02:23:51;62.50;;;45.50;;
50906;SDS011;36882;27.680;85.304;2023-10-13T02:26:32;58.80;;;42.38;;
50906;SDS011;36882;27.680;85.304;2023-10-13T02:29:07;60.67;;;40.55;;
50906;SDS011;36882;27.680;85.304;2023-10-13T02:31:42;60.60;;;43.17;;
50906;SDS011;36882;27.680;85.304;2023-10-13T02:34:23;66.53;;;44.10;;
50906;SDS011;36882;27.680;85.304;2023-10-13T02:36:54;56.13;;;39.85;;
50906;SDS011;36882;27.680;85.304;2023-10-13T02:39:24;59.97;;;42.30;;
50906;SDS011;36882;27.680;85.304;2023-10-13T02:42:01;72.63;;;43.22;;
50906;SDS011;36882;27.680;85.304;2023-10-13T02:44:35;61.25;;;41.78;;
50906;SDS011;36882;27.680;85.304;2023-10-13T02:47:10;67.28;;;42.25;;
50906;SDS011;36882;27.680;85.304;2023-10-13T02:49:43;71.53;;;44.50;;
50906;SDS011;36882;27.680;85.304;2023-10-13T02:52:16;62.08;;;42.95;;
50906;SDS011;36882;27.680;85.304;2023-10-13T02:54:46;63.10;;;43.33;;
50906;SDS011;36882;27.680;85.304;2023-10-13T02:57:19;67.22;;;42.33;;
50906;SDS011;36882;27.680;85.304;2023-10-13T02:59:52;73.93;;;43.30;;
50906;SDS011;36882;27.680;85.304;2023-10-13T03:02:27;69.60;;;44.20;;
50906;SDS011;36882;27.680;85.304;2023-10-13T03:04:59;70.43;;;45.70;;
50906;SDS011;36882;27.680;85.304;2023-10-13T03:07:37;76.93;;;46.95;;
50906;SDS011;36882;27.680;85.304;2023-10-13T03:10:12;72.60;;;46.72;;
50906;SDS011;36882;27.680;85.304;2023-10-13T03:12:44;69.20;;;45.78;;
50906;SDS011;36882;27.680;85.304;2023-10-13T03:15:17;67.97;;;48.15;;
50906;SDS011;36882;27.680;85.304;2023-10-13T03:17:50;70.95;;;44.15;;
50906;SDS011;36882;27.680;85.304;2023-10-13T03:20:24;68.40;;;41.63;;
50906;SDS011;36882;27.680;85.304;2023-10-13T03:23:10;63.30;;;39.40;;
50906;SDS011;36882;27.680;85.304;2023-10-13T03:25:59;66.38;;;40.80;;
50906;SDS011;36882;27.680;85.304;2023-10-13T03:28:37;62.97;;;39.80;;
50906;SDS011;36882;27.680;85.304;2023-10-13T03:31:08;59.13;;;39.45;;
50906;SDS011;36882;27.680;85.304;2023-10-13T03:33:46;59.22;;;38.03;;
50906;SDS011;36882;27.680;85.304;2023-10-13T03:36:17;58.28;;;40.05;;
50906;SDS011;36882;27.680;85.304;2023-10-13T03:39:10;66.10;;;38.88;;
50906;SDS011;36882;27.680;85.304;2023-10-13T03:41:42;58.97;;;38.67;;
50906;SDS011;36882;27.680;85.304;2023-10-13T03:44:14;52.33;;;35.80;;
50906;SDS011;36882;27.680;85.304;2023-10-13T03:46:47;59.60;;;41.55;;
50906;SDS011;36882;27.680;85.304;2023-10-13T03:49:17;54.75;;;38.28;;
50906;SDS011;36882;27.680;85.304;2023-10-13T03:51:50;62.75;;;38.30;;
50906;SDS011;36882;27.680;85.304;2023-10-13T03:54:23;61.47;;;39.20;;
50906;SDS011;36882;27.680;85.304;2023-10-13T03:56:58;58.08;;;38.08;;
50906;SDS011;36882;27.680;85.304;2023-10-13T03:59:35;57.67;;;37.42;;
50906;SDS011;36882;27.680;85.304;2023-10-13T04:02:06;62.70;;;38.85;;
50906;SDS011;36882;27.680;85.304;2023-10-13T04:04:51;64.40;;;37.00;;
50906;SDS011;36882;27.680;85.304;2023-10-13T04:07:24;50.45;;;34.28;;
50906;SDS011;36882;27.680;85.304;2023-10-13T04:10:29;53.95;;;36.22;;
50906;SDS011;36882;27.680;85.304;2023-10-13T04:13:17;56.83;;;38.03;;
50906;SDS011;36882;27.680;85.304;2023-10-13T04:16:09;47.88;;;35.38;;
50906;SDS011;36882;27.680;85.304;2023-10-13T04:19:03;55.85;;;35.38;;
50906;SDS011;36882;27.680;85.304;2023-10-13T04:21:49;53.78;;;35.33;;
50906;SDS011;36882;27.680;85.304;2023-10-13T04:24:27;52.08;;;33.53;;
50906;SDS011;36882;27.680;85.304;2023-10-13T04:27:26;53.50;;;36.22;;
50906;SDS011;36882;27.680;85.304;2023-10-13T04:30:24;54.95;;;34.72;;
50906;SDS011;36882;27.680;85.304;2023-10-13T04:32:56;52.47;;;34.75;;
50906;SDS011;36882;27.680;85.304;2023-10-13T04:38:27;50.85;;;34.08;;
50906;SDS011;36882;27.680;85.304;2023-10-13T04:41:12;59.72;;;36.38;;
50906;SDS011;36882;27.680;85.304;2023-10-13T04:43:51;50.15;;;36.50;;
50906;SDS011;36882;27.680;85.304;2023-10-13T04:46:24;51.08;;;32.03;;
50906;SDS011;36882;27.680;85.304;2023-10-13T04:49:13;58.08;;;33.33;;
50906;SDS011;36882;27.680;85.304;2023-10-13T04:52:02;55.70;;;35.53;;
50906;SDS011;36882;27.680;85.304;2023-10-13T04:54:41;49.42;;;32.22;;
50906;SDS011;36882;27.680;85.304;2023-10-13T04:57:24;47.85;;;33.47;;
50906;SDS011;36882;27.680;85.304;2023-10-13T05:00:06;54.58;;;39.15;;
50906;SDS011;36882;27.680;85.304;2023-10-13T05:02:41;63.00;;;35.85;;
50906;SDS011;36882;27.680;85.304;2023-10-13T05:05:44;102.28;;;57.45;;
50906;SDS011;36882;27.680;85.304;2023-10-13T05:08:38;54.45;;;35.33;;
50906;SDS011;36882;27.680;85.304;2023-10-13T05:11:27;52.38;;;35.78;;
50906;SDS011;36882;27.680;85.304;2023-10-13T05:14:16;71.38;;;44.53;;
50906;SDS011;36882;27.680;85.304;2023-10-13T05:17:04;53.03;;;38.25;;
50906;SDS011;36882;27.680;85.304;2023-10-13T05:19:55;47.33;;;34.53;;
50906;SDS011;36882;27.680;85.304;2023-10-13T05:22:49;52.05;;;35.63;;
50906;SDS011;36882;27.680;85.304;2023-10-13T05:25:38;58.08;;;39.92;;
50906;SDS011;36882;27.680;85.304;2023-10-13T05:28:26;62.55;;;38.83;;
50906;SDS011;36882;27.680;85.304;2023-10-13T05:31:16;116.95;;;68.97;;
50906;SDS011;36882;27.680;85.304;2023-10-13T05:34:06;82.65;;;50.85;;
50906;SDS011;36882;27.680;85.304;2023-10-13T05:36:57;56.35;;;36.60;;
50906;SDS011;36882;27.680;85.304;2023-10-13T05:39:46;97.55;;;59.47;;
50906;SDS011;36882;27.680;85.304;2023-10-13T05:42:35;54.85;;;35.65;;
50906;SDS011;36882;27.680;85.304;2023-10-13T05:45:23;50.83;;;31.92;;
50906;SDS011;36882;27.680;85.304;2023-10-13T05:48:09;46.88;;;31.95;;
50906;SDS011;36882;27.680;85.304;2023-10-13T05:50:48;51.33;;;33.80;;
50906;SDS011;36882;27.680;85.304;2023-10-13T05:53:50;55.88;;;34.60;;
50906;SDS011;36882;27.680;85.304;2023-10-13T05:56:39;47.92;;;33.22;;
50906;SDS011;36882;27.680;85.304;2023-10-13T05:59:37;62.63;;;32.72;;
50906;SDS011;36882;27.680;85.304;2023-10-13T06:02:26;55.03;;;34.03;;
50906;SDS011;36882;27.680;85.304;2023-10-13T06:05:14;48.45;;;30.77;;
50906;SDS011;36882;27.680;85.304;2023-10-13T06:08:03;50.70;;;32.55;;
50906;SDS011;36882;27.680;85.304;2023-10-13T06:11:00;51.28;;;33.10;;
50906;SDS011;36882;27.680;85.304;2023-10-13T06:13:49;57.03;;;31.80;;
50906;SDS011;36882;27.680;85.304;2023-10-13T06:16:38;51.05;;;32.38;;
50906;SDS011;36882;27.680;85.304;2023-10-13T06:19:26;47.35;;;30.60;;
50906;SDS011;36882;27.680;85.304;2023-10-13T06:22:15;57.03;;;31.88;;
50906;SDS011;36882;27.680;85.304;2023-10-13T06:25:08;41.80;;;31.55;;
50906;SDS011;36882;27.680;85.304;2023-10-13T06:27:56;49.17;;;31.15;;
50906;SDS011;36882;27.680;85.304;2023-10-13T06:30:53;43.85;;;30.77;;
50906;SDS011;36882;27.680;85.304;2023-10-13T06:33:25;54.78;;;35.65;;
50906;SDS011;36882;27.680;85.304;2023-10-13T06:35:58;50.80;;;33.75;;
50906;SDS011;36882;27.680;85.304;2023-10-13T06:38:29;55.97;;;35.65;;
50906;SDS011;36882;27.680;85.304;2023-10-13T06:41:05;54.25;;;32.40;;
50906;SDS011;36882;27.680;85.304;2023-10-13T06:43:38;46.30;;;33.17;;
50906;SDS011;36882;27.680;85.304;2023-10-13T06:46:09;60.25;;;35.63;;
50906;SDS011;36882;27.680;85.304;2023-10-13T06:48:52;56.60;;;34.35;;
50906;SDS011;36882;27.680;85.304;2023-10-13T06:51:23;57.13;;;34.65;;
50906;SDS011;36882;27.680;85.304;2023-10-13T06:53:59;53.70;;;34.17;;
50906;SDS011;36882;27.680;85.304;2023-10-13T06:56:34;47.42;;;32.83;;
50906;SDS011;36882;27.680;85.304;2023-10-13T06:59:08;52.72;;;34.85;;
50906;SDS011;36882;27.680;85.304;2023-10-13T07:01:38;60.85;;;39.05;;
50906;SDS011;36882;27.680;85.304;2023-10-13T07:04:10;74.13;;;44.90;;
50906;SDS011;36882;27.680;85.304;2023-10-13T07:06:44;74.18;;;43.58;;
50906;SDS011;36882;27.680;85.304;2023-10-13T07:09:19;71.18;;;43.35;;
50906;SDS011;36882;27.680;85.304;2023-10-13T07:12:05;71.07;;;41.00;;
50906;SDS011;36882;27.680;85.304;2023-10-13T07:14:45;57.72;;;39.42;;
50906;SDS011;36882;27.680;85.304;2023-10-13T07:17:28;64.10;;;43.50;;
50906;SDS011;36882;27.680;85.304;2023-10-13T07:20:02;76.00;;;43.25;;
50906;SDS011;36882;27.680;85.304;2023-10-13T07:22:51;72.87;;;40.57;;
50906;SDS011;36882;27.680;85.304;2023-10-13T07:25:35;69.80;;;42.35;;
50906;SDS011;36882;27.680;85.304;2023-10-13T07:28:06;70.65;;;39.78;;
50906;SDS011;36882;27.680;85.304;2023-10-13T07:30:38;63.28;;;39.78;;
50906;SDS011;36882;27.680;85.304;2023-10-13T07:33:18;75.28;;;39.92;;
50906;SDS011;36882;27.680;85.304;2023-10-13T07:35:59;63.92;;;41.63;;
50906;SDS011;36882;27.680;85.304;2023-10-13T07:38:45;74.28;;;41.95;;
50906;SDS011;36882;27.680;85.304;2023-10-13T07:41:48;62.53;;;35.80;;
50906;SDS011;36882;27.680;85.304;2023-10-13T07:44:43;62.38;;;35.00;;
50906;SDS011;36882;27.680;85.304;2023-10-13T07:47:17;57.03;;;38.40;;
50906;SDS011;36882;27.680;85.304;2023-10-13T07:49:49;61.90;;;36.22;;
50906;SDS011;36882;27.680;85.304;2023-10-13T07:59:44;54.13;;;35.60;;
50906;SDS011;36882;27.680;85.304;2023-10-13T08:02:21;52.85;;;33.17;;
50906;SDS011;36882;27.680;85.304;2023-10-13T08:05:10;52.70;;;33.75;;
50906;SDS011;36882;27.680;85.304;2023-10-13T08:11:37;55.60;;;34.63;;
50906;SDS011;36882;27.680;85.304;2023-10-13T08:14:07;50.40;;;33.90;;
50906;SDS011;36882;27.680;85.304;2023-10-13T08:17:05;55.85;;;35.60;;
50906;SDS011;36882;27.680;85.304;2023-10-13T08:19:39;58.83;;;35.30;;
50906;SDS011;36882;27.680;85.304;2023-10-13T08:25:59;44.00;;;33.03;;
50906;SDS011;36882;27.680;85.304;2023-10-13T08:35:45;46.42;;;32.67;;
50906;SDS011;36882;27.680;85.304;2023-10-13T09:13:05;44.72;;;28.77;;
50906;SDS011;36882;27.680;85.304;2023-10-13T09:19:44;43.78;;;28.63;;
50906;SDS011;36882;27.680;85.304;2023-10-13T09:26:06;48.28;;;31.40;;
50906;SDS011;36882;27.680;85.304;2023-10-13T09:32:24;45.80;;;31.67;;
50906;SDS011;36882;27.680;85.304;2023-10-13T09:35:01;44.08;;;31.23;;
50906;SDS011;36882;27.680;85.304;2023-10-13T09:37:34;49.00;;;32.45;;
50906;SDS011;36882;27.680;85.304;2023-10-13T09:40:06;46.15;;;31.27;;
50906;SDS011;36882;27.680;85.304;2023-10-13T09:50:08;50.90;;;31.77;;
50906;SDS011;36882;27.680;85.304;2023-10-13T10:26:09;58.13;;;32.95;;
50906;SDS011;36882;27.680;85.304;2023-10-13T10:36:06;54.90;;;32.28;;
50906;SDS011;36882;27.680;85.304;2023-10-13T10:41:29;50.97;;;34.05;;
50906;SDS011;36882;27.680;85.304;2023-10-13T10:52:10;49.05;;;34.08;;
50906;SDS011;36882;27.680;85.304;2023-10-13T10:54:47;49.20;;;34.53;;
50906;SDS011;36882;27.680;85.304;2023-10-13T11:54:33;62.67;;;39.60;;
50906;SDS011;36882;27.680;85.304;2023-10-13T11:57:07;73.90;;;36.88;;
50906;SDS011;36882;27.680;85.304;2023-10-13T11:59:38;63.85;;;39.30;;
50906;SDS011;36882;27.680;85.304;2023-10-13T12:02:15;63.03;;;38.65;;
50906;SDS011;36882;27.680;85.304;2023-10-13T12:04:55;69.28;;;42.60;;
50906;SDS011;36882;27.680;85.304;2023-10-13T12:07:28;70.82;;;42.28;;
50906;SDS011;36882;27.680;85.304;2023-10-13T12:10:16;78.50;;;43.10;;
50906;SDS011;36882;27.680;85.304;2023-10-13T12:13:02;74.25;;;44.55;;
50906;SDS011;36882;27.680;85.304;2023-10-13T12:15:37;73.28;;;45.97;;
50906;SDS011;36882;27.680;85.304;2023-10-13T12:18:17;65.43;;;44.53;;
50906;SDS011;36882;27.680;85.304;2023-10-13T12:20:48;70.53;;;44.95;;
50906;SDS011;36882;27.680;85.304;2023-10-13T12:23:18;69.00;;;47.78;;
50906;SDS011;36882;27.680;85.304;2023-10-13T12:26:00;70.43;;;44.97;;
50906;SDS011;36882;27.680;85.304;2023-10-13T12:28:35;64.20;;;45.92;;
50906;SDS011;36882;27.680;85.304;2023-10-13T12:31:10;69.80;;;46.13;;
50906;SDS011;36882;27.680;85.304;2023-10-13T12:33:40;67.72;;;45.20;;
50906;SDS011;36882;27.680;85.304;2023-10-13T12:36:11;69.07;;;44.38;;
50906;SDS011;36882;27.680;85.304;2023-10-13T12:38:50;67.57;;;44.00;;
50906;SDS011;36882;27.680;85.304;2023-10-13T12:44:28;63.75;;;43.08;;
50906;SDS011;36882;27.680;85.304;2023-10-13T12:47:16;64.18;;;42.83;;
50906;SDS011;36882;27.680;85.304;2023-10-13T12:50:05;61.07;;;44.63;;
50906;SDS011;36882;27.680;85.304;2023-10-13T12:52:42;73.32;;;45.38;;
50906;SDS011;36882;27.680;85.304;2023-10-13T12:55:14;85.60;;;53.10;;
50906;SDS011;36882;27.680;85.304;2023-10-13T12:57:48;81.65;;;54.00;;
50906;SDS011;36882;27.680;85.304;2023-10-13T13:00:18;88.70;;;52.20;;
50906;SDS011;36882;27.680;85.304;2023-10-13T13:02:54;92.30;;;54.08;;
50906;SDS011;36882;27.680;85.304;2023-10-13T13:05:24;91.63;;;51.25;;
50906;SDS011;36882;27.680;85.304;2023-10-13T13:07:57;83.95;;;48.83;;
50906;SDS011;36882;27.680;85.304;2023-10-13T13:10:28;71.78;;;45.53;;
50906;SDS011;36882;27.680;85.304;2023-10-13T13:13:04;81.25;;;45.13;;
50906;SDS011;36882;27.680;85.304;2023-10-13T13:15:34;75.65;;;41.33;;
50906;SDS011;36882;27.680;85.304;2023-10-13T13:18:05;67.90;;;44.22;;
50906;SDS011;36882;27.680;85.304;2023-10-13T13:20:41;71.93;;;46.33;;
50906;SDS011;36882;27.680;85.304;2023-10-13T13:23:24;71.15;;;44.15;;
50906;SDS011;36882;27.680;85.304;2023-10-13T13:26:00;67.50;;;43.63;;
50906;SDS011;36882;27.680;85.304;2023-10-13T13:28:30;76.05;;;47.55;;
50906;SDS011;36882;27.680;85.304;2023-10-13T13:31:06;91.10;;;47.03;;
50906;SDS011;36882;27.680;85.304;2023-10-13T13:33:37;65.07;;;43.15;;
50906;SDS011;36882;27.680;85.304;2023-10-13T13:36:11;75.18;;;44.40;;
50906;SDS011;36882;27.680;85.304;2023-10-13T13:38:45;84.32;;;51.28;;
50906;SDS011;36882;27.680;85.304;2023-10-13T13:41:18;73.72;;;46.75;;
50906;SDS011;36882;27.680;85.304;2023-10-13T13:43:50;97.13;;;51.60;;
50906;SDS011;36882;27.680;85.304;2023-10-13T13:46:30;75.95;;;46.58;;
50906;SDS011;36882;27.680;85.304;2023-10-13T13:49:10;74.82;;;45.97;;
50906;SDS011;36882;27.680;85.304;2023-10-13T13:51:47;80.15;;;46.47;;
50906;SDS011;36882;27.680;85.304;2023-10-13T13:54:20;70.35;;;46.58;;
50906;SDS011;36882;27.680;85.304;2023-10-13T13:56:51;69.30;;;47.65;;
50906;SDS011;36882;27.680;85.304;2023-10-13T13:59:22;74.68;;;45.40;;
50906;SDS011;36882;27.680;85.304;2023-10-13T14:01:52;71.93;;;46.58;;
50906;SDS011;36882;27.680;85.304;2023-10-13T14:04:28;87.82;;;47.75;;
50906;SDS011;36882;27.680;85.304;2023-10-13T14:07:00;73.90;;;46.28;;
50906;SDS011;36882;27.680;85.304;2023-10-13T14:09:35;60.33;;;42.75;;
50906;SDS011;36882;27.680;85.304;2023-10-13T14:12:09;59.33;;;42.90;;
50906;SDS011;36882;27.680;85.304;2023-10-13T14:15:05;56.78;;;38.80;;
50906;SDS011;36882;27.680;85.304;2023-10-13T14:17:48;60.80;;;42.70;;
50906;SDS011;36882;27.680;85.304;2023-10-13T14:20:19;61.58;;;44.03;;
50906;SDS011;36882;27.680;85.304;2023-10-13T14:22:49;61.85;;;40.95;;
50906;SDS011;36882;27.680;85.304;2023-10-13T14:25:21;61.97;;;41.95;;
50906;SDS011;36882;27.680;85.304;2023-10-13T14:27:57;71.55;;;42.88;;
50906;SDS011;36882;27.680;85.304;2023-10-13T14:30:28;61.33;;;41.60;;
50906;SDS011;36882;27.680;85.304;2023-10-13T14:33:00;73.20;;;44.70;;
50906;SDS011;36882;27.680;85.304;2023-10-13T14:35:30;73.85;;;44.35;;
50906;SDS011;36882;27.680;85.304;2023-10-13T14:38:05;67.78;;;43.67;;
50906;SDS011;36882;27.680;85.304;2023-10-13T14:40:39;67.68;;;44.35;;
50906;SDS011;36882;27.680;85.304;2023-10-13T14:43:10;55.75;;;42.63;;
50906;SDS011;36882;27.680;85.304;2023-10-13T14:45:40;63.08;;;46.10;;
50906;SDS011;36882;27.680;85.304;2023-10-13T14:48:10;68.90;;;42.75;;
50906;SDS011;36882;27.680;85.304;2023-10-13T14:50:43;66.05;;;42.97;;
50906;SDS011;36882;27.680;85.304;2023-10-13T14:53:14;65.28;;;41.92;;
50906;SDS011;36882;27.680;85.304;2023-10-13T14:55:48;67.43;;;47.45;;
50906;SDS011;36882;27.680;85.304;2023-10-13T14:58:20;85.50;;;47.05;;
50906;SDS011;36882;27.680;85.304;2023-10-13T15:00:55;86.65;;;47.88;;
50906;SDS011;36882;27.680;85.304;2023-10-13T15:03:27;77.88;;;45.63;;
50906;SDS011;36882;27.680;85.304;2023-10-13T15:06:02;68.55;;;44.50;;
50906;SDS011;36882;27.680;85.304;2023-10-13T15:08:33;60.67;;;44.72;;
50906;SDS011;36882;27.680;85.304;2023-10-13T15:11:10;65.40;;;46.55;;
50906;SDS011;36882;27.680;85.304;2023-10-13T15:13:47;64.30;;;43.97;;
50906;SDS011;36882;27.680;85.304;2023-10-13T15:16:21;77.05;;;45.72;;
50906;SDS011;36882;27.680;85.304;2023-10-13T15:18:52;64.68;;;41.80;;
50906;SDS011;36882;27.680;85.304;2023-10-13T15:21:27;66.38;;;41.63;;
50906;SDS011;36882;27.680;85.304;2023-10-13T15:26:53;74.45;;;45.38;;
50906;SDS011;36882;27.680;85.304;2023-10-13T15:29:31;63.88;;;42.78;;
50906;SDS011;36882;27.680;85.304;2023-10-13T15:32:06;66.72;;;41.95;;
50906;SDS011;36882;27.680;85.304;2023-10-13T15:34:43;71.25;;;46.33;;
50906;SDS011;36882;27.680;85.304;2023-10-13T15:37:14;62.00;;;44.17;;
50906;SDS011;36882;27.680;85.304;2023-10-13T15:39:44;88.60;;;48.95;;
50906;SDS011;36882;27.680;85.304;2023-10-13T15:42:15;68.22;;;46.10;;
50906;SDS011;36882;27.680;85.304;2023-10-13T15:44:45;70.00;;;46.08;;
50906;SDS011;36882;27.680;85.304;2023-10-13T15:47:17;69.70;;;47.08;;
50906;SDS011;36882;27.680;85.304;2023-10-13T15:50:07;69.45;;;47.20;;
50906;SDS011;36882;27.680;85.304;2023-10-13T15:52:44;68.60;;;46.72;;
50906;SDS011;36882;27.680;85.304;2023-10-13T15:55:15;86.43;;;50.15;;
50906;SDS011;36882;27.680;85.304;2023-10-13T15:57:48;68.28;;;47.58;;
50906;SDS011;36882;27.680;85.304;2023-10-13T16:00:22;79.40;;;42.78;;
50906;SDS011;36882;27.680;85.304;2023-10-13T16:02:53;74.95;;;47.47;;
50906;SDS011;36882;27.680;85.304;2023-10-13T16:05:31;64.07;;;44.75;;
50906;SDS011;36882;27.680;85.304;2023-10-13T16:08:06;74.05;;;44.67;;
50906;SDS011;36882;27.680;85.304;2023-10-13T16:10:40;68.43;;;44.80;;
50906;SDS011;36882;27.680;85.304;2023-10-13T16:13:11;71.88;;;43.30;;
50906;SDS011;36882;27.680;85.304;2023-10-13T16:15:44;62.97;;;43.95;;
50906;SDS011;36882;27.680;85.304;2023-10-13T16:18:16;73.55;;;46.13;;
50906;SDS011;36882;27.680;85.304;2023-10-13T16:20:50;70.78;;;42.92;;
50906;SDS011;36882;27.680;85.304;2023-10-13T16:23:22;66.65;;;43.83;;
50906;SDS011;36882;27.680;85.304;2023-10-13T16:25:53;63.60;;;43.47;;
50906;SDS011;36882;27.680;85.304;2023-10-13T16:28:26;68.40;;;42.33;;
50906;SDS011;36882;27.680;85.304;2023-10-13T16:30:56;76.20;;;41.35;;
50906;SDS011;36882;27.680;85.304;2023-10-13T16:33:26;68.53;;;43.65;;
50906;SDS011;36882;27.680;85.304;2023-10-13T16:35:58;67.63;;;43.67;;
50906;SDS011;36882;27.680;85.304;2023-10-13T16:38:28;70.13;;;42.65;;
50906;SDS011;36882;27.680;85.304;2023-10-13T16:40:59;75.57;;;45.38;;
50906;SDS011;36882;27.680;85.304;2023-10-13T16:43:34;63.25;;;43.55;;
50906;SDS011;36882;27.680;85.304;2023-10-13T16:46:05;65.68;;;39.63;;
50906;SDS011;36882;27.680;85.304;2023-10-13T16:48:41;63.15;;;43.60;;
50906;SDS011;36882;27.680;85.304;2023-10-13T16:51:17;67.65;;;45.67;;
50906;SDS011;36882;27.680;85.304;2023-10-13T16:53:47;66.03;;;43.00;;
50906;SDS011;36882;27.680;85.304;2023-10-13T16:56:20;63.40;;;44.20;;
50906;SDS011;36882;27.680;85.304;2023-10-13T16:58:51;73.25;;;45.08;;
50906;SDS011;36882;27.680;85.304;2023-10-13T17:01:23;76.50;;;42.42;;
50906;SDS011;36882;27.680;85.304;2023-10-13T17:03:53;66.57;;;42.60;;
50906;SDS011;36882;27.680;85.304;2023-10-13T17:06:24;75.22;;;40.20;;
50906;SDS011;36882;27.680;85.304;2023-10-13T17:08:54;64.97;;;42.55;;
50906;SDS011;36882;27.680;85.304;2023-10-13T17:11:24;67.70;;;45.13;;
50906;SDS011;36882;27.680;85.304;2023-10-13T17:13:55;64.43;;;43.05;;
50906;SDS011;36882;27.680;85.304;2023-10-13T17:16:25;68.30;;;46.30;;
50906;SDS011;36882;27.680;85.304;2023-10-13T17:18:55;69.40;;;42.88;;
50906;SDS011;36882;27.680;85.304;2023-10-13T17:21:27;71.82;;;42.85;;
50906;SDS011;36882;27.680;85.304;2023-10-13T17:23:59;66.45;;;44.08;;
50906;SDS011;36882;27.680;85.304;2023-10-13T17:26:30;69.15;;;47.55;;
50906;SDS011;36882;27.680;85.304;2023-10-13T17:29:01;70.38;;;46.47;;
50906;SDS011;36882;27.680;85.304;2023-10-13T17:31:37;64.22;;;47.03;;
50906;SDS011;36882;27.680;85.304;2023-10-13T17:34:08;68.20;;;45.35;;
50906;SDS011;36882;27.680;85.304;2023-10-13T17:36:38;72.78;;;45.95;;
50906;SDS011;36882;27.680;85.304;2023-10-13T17:39:09;73.78;;;46.17;;
50906;SDS011;36882;27.680;85.304;2023-10-13T17:41:39;85.90;;;46.45;;
50906;SDS011;36882;27.680;85.304;2023-10-13T17:44:10;69.93;;;49.17;;
50906;SDS011;36882;27.680;85.304;2023-10-13T17:46:40;81.57;;;48.58;;
50906;SDS011;36882;27.680;85.304;2023-10-13T17:49:10;76.28;;;46.58;;
50906;SDS011;36882;27.680;85.304;2023-10-13T17:51:41;82.43;;;48.17;;
50906;SDS011;36882;27.680;85.304;2023-10-13T17:54:12;75.22;;;46.30;;
50906;SDS011;36882;27.680;85.304;2023-10-13T17:56:42;80.55;;;47.15;;
50906;SDS011;36882;27.680;85.304;2023-10-13T17:59:13;67.38;;;43.92;;
50906;SDS011;36882;27.680;85.304;2023-10-13T18:01:43;68.97;;;44.92;;
50906;SDS011;36882;27.680;85.304;2023-10-13T18:04:17;65.72;;;42.63;;
50906;SDS011;36882;27.680;85.304;2023-10-13T18:06:48;71.40;;;42.15;;
50906;SDS011;36882;27.680;85.304;2023-10-13T18:09:24;58.78;;;42.13;;
50906;SDS011;36882;27.680;85.304;2023-10-13T18:11:56;63.20;;;41.63;;
50906;SDS011;36882;27.680;85.304;2023-10-13T18:14:28;59.20;;;41.88;;
50906;SDS011;36882;27.680;85.304;2023-10-13T18:16:58;63.05;;;41.50;;